Time,TemperatureF,DewpointF,PressureIn,WindDirection,WindDirectionDegrees,WindSpeedMPH,WindSpeedGustMPH,Humidity,HourlyPrecipIn,Conditions,Clouds,dailyrainin,SoftwareType,DateUTC
2013-03-22 00:00:00,33.0,19.8,30.05,NE,36,0.0,0.0,58,0.00,,,0.00,Wunderground v.1.15,2013-03-22 04:00:00,
2013-03-22 00:10:00,32.8,21.2,30.05,NE,36,0.0,0.0,62,0.00,,,0.00,Wunderground v.1.15,2013-03-22 04:10:00,
2013-03-22 00:20:00,32.5,18.9,30.05,NE,36,0.0,0.0,57,0.00,,,0.00,Wunderground v.1.15,2013-03-22 04:20:00,
2013-03-22 00:30:00,32.3,21.5,30.04,NE,36,0.0,0.0,64,0.00,,,0.00,Wunderground v.1.15,2013-03-22 04:30:00,
2013-03-22 00:40:00,31.9,18.8,30.04,NE,36,0.0,0.0,58,0.00,,,0.00,Wunderground v.1.15,2013-03-22 04:40:00,
2013-03-22 00:50:00,32.0,20.4,30.05,NE,36,0.0,0.0,62,0.00,,,0.00,Wunderground v.1.15,2013-03-22 04:50:00,
2013-03-22 01:00:00,32.0,20.1,30.05,NE,36,0.0,0.0,61,0.00,,,0.00,Wunderground v.1.15,2013-03-22 05:00:00,
2013-03-22 01:10:00,31.7,21.3,30.05,NE,36,0.0,0.0,65,0.00,,,0.00,Wunderground v.1.15,2013-03-22 05:10:00,
2013-03-22 01:20:00,31.4,21.3,30.05,NE,36,0.0,0.0,66,0.00,,,0.00,Wunderground v.1.15,2013-03-22 05:20:00,
2013-03-22 01:30:00,31.2,19.3,30.05,NE,36,0.0,0.0,61,0.00,,,0.00,Wunderground v.1.15,2013-03-22 05:30:00,
2013-03-22 01:40:00,31.2,21.9,30.05,NE,36,0.0,0.0,68,0.00,,,0.00,Wunderground v.1.15,2013-03-22 05:40:00,
2013-03-22 01:50:00,31.1,21.4,30.06,NE,36,0.0,0.0,67,0.00,,,0.00,Wunderground v.1.15,2013-03-22 05:50:00,
2013-03-22 02:00:00,31.3,22.6,30.07,NE,36,0.0,0.0,70,0.00,,,0.00,Wunderground v.1.15,2013-03-22 06:00:00,
2013-03-22 02:10:00,31.5,22.1,30.07,NE,36,0.0,0.0,68,0.00,,,0.00,Wunderground v.1.15,2013-03-22 06:10:00,
2013-03-22 02:20:00,31.7,22.7,30.07,NE,36,0.0,0.0,69,0.00,,,0.00,Wunderground v.1.15,2013-03-22 06:20:00,
2013-03-22 02:30:00,31.9,22.5,30.07,NE,36,0.0,0.0,68,0.00,,,0.00,Wunderground v.1.15,2013-03-22 06:30:00,
2013-03-22 02:40:00,32.0,21.9,30.07,NE,36,0.0,0.0,66,0.00,,,0.00,Wunderground v.1.15,2013-03-22 06:40:00,
2013-03-22 02:50:00,32.1,23.1,30.07,NE,36,0.0,0.0,69,0.00,,,0.00,Wunderground v.1.15,2013-03-22 06:50:00,
2013-03-22 03:00:00,32.1,20.2,30.06,NE,36,0.0,0.0,61,0.00,,,0.00,Wunderground v.1.15,2013-03-22 07:00:00,
2013-03-22 03:10:00,32.4,21.6,30.06,NE,36,0.0,0.0,64,0.00,,,0.00,Wunderground v.1.15,2013-03-22 07:10:00,
2013-03-22 03:20:00,32.7,19.9,30.06,NE,36,0.0,0.0,59,0.00,,,0.00,Wunderground v.1.15,2013-03-22 07:20:00,
2013-03-22 03:30:00,32.9,20.1,30.06,NE,36,0.0,0.0,59,0.00,,,0.00,Wunderground v.1.15,2013-03-22 07:30:00,
2013-03-22 03:40:00,33.0,21.0,30.06,NE,36,0.0,0.0,61,0.00,,,0.00,Wunderground v.1.15,2013-03-22 07:40:00,
2013-03-22 03:50:00,32.8,20.8,30.06,NE,36,0.0,0.0,61,0.00,,,0.00,Wunderground v.1.15,2013-03-22 07:50:00,
2013-03-22 04:00:00,32.6,21.4,30.06,NE,36,0.0,0.0,63,0.00,,,0.00,Wunderground v.1.15,2013-03-22 08:00:00,
2013-03-22 04:10:00,32.4,21.6,30.06,NE,36,0.0,0.0,64,0.00,,,0.00,Wunderground v.1.15,2013-03-22 08:10:00,
2013-03-22 04:20:00,32.3,21.8,30.06,NE,36,0.0,0.0,65,0.00,,,0.00,Wunderground v.1.15,2013-03-22 08:20:00,
2013-03-22 04:30:00,32.2,21.7,30.06,NE,36,0.0,0.0,65,0.00,,,0.00,Wunderground v.1.15,2013-03-22 08:30:00,
2013-03-22 04:40:00,32.4,20.8,30.06,NE,36,0.0,0.0,62,0.00,,,0.00,Wunderground v.1.15,2013-03-22 08:40:00,
2013-03-22 04:50:00,32.8,20.0,30.07,NE,48,0.0,0.0,59,0.00,,,0.00,Wunderground v.1.15,2013-03-22 08:50:00,
2013-03-22 05:00:00,33.1,19.5,30.07,NE,54,0.0,0.0,57,0.00,,,0.00,Wunderground v.1.15,2013-03-22 09:00:00,
2013-03-22 05:10:00,33.2,19.2,30.06,NE,54,0.0,0.0,56,0.00,,,0.00,Wunderground v.1.15,2013-03-22 09:10:00,
2013-03-22 05:20:00,33.1,19.1,30.06,NE,53,1.0,1.0,56,0.00,,,0.00,Wunderground v.1.15,2013-03-22 09:20:00,
2013-03-22 05:30:00,33.2,19.2,30.06,NE,43,1.0,1.0,56,0.00,,,0.00,Wunderground v.1.15,2013-03-22 09:30:00,
2013-03-22 05:40:00,33.2,18.3,30.07,NE,43,0.0,0.0,54,0.00,,,0.00,Wunderground v.1.15,2013-03-22 09:40:00,
2013-03-22 05:50:00,33.3,18.9,30.07,NE,43,0.0,1.0,55,0.00,,,0.00,Wunderground v.1.15,2013-03-22 09:50:00,
2013-03-22 06:00:00,33.3,18.4,30.07,NE,39,0.0,0.0,54,0.00,,,0.00,Wunderground v.1.15,2013-03-22 10:00:00,
2013-03-22 06:10:00,33.4,17.6,30.07,NE,39,0.0,1.0,52,0.00,,,0.00,Wunderground v.1.15,2013-03-22 10:10:00,
2013-03-22 06:20:00,33.4,18.5,30.07,NE,39,0.0,0.0,54,0.00,,,0.00,Wunderground v.1.15,2013-03-22 10:20:00,
2013-03-22 06:30:00,33.4,17.6,30.07,NE,44,1.0,1.0,52,0.00,,,0.00,Wunderground v.1.15,2013-03-22 10:30:00,
2013-03-22 06:40:00,33.4,17.6,30.07,NNE,30,0.0,0.0,52,0.00,,,0.00,Wunderground v.1.15,2013-03-22 10:40:00,
2013-03-22 06:50:00,33.4,17.6,30.07,NE,34,0.0,0.0,52,0.00,,,0.00,Wunderground v.1.15,2013-03-22 10:50:00,
2013-03-22 07:00:00,33.3,18.0,30.08,NE,34,0.0,0.0,53,0.00,,,0.00,Wunderground v.1.15,2013-03-22 11:00:00,
2013-03-22 07:10:00,33.4,17.6,30.08,NE,34,0.0,1.0,52,0.00,,,0.00,Wunderground v.1.15,2013-03-22 11:10:00,
2013-03-22 07:20:00,33.4,18.1,30.08,NE,34,0.0,1.0,53,0.00,,,0.00,Wunderground v.1.15,2013-03-22 11:20:00,
2013-03-22 07:30:00,33.4,17.6,30.08,NE,46,0.0,1.0,52,0.00,,,0.00,Wunderground v.1.15,2013-03-22 11:30:00,
2013-03-22 07:40:00,33.3,17.5,30.08,NE,43,0.0,0.0,52,0.00,,,0.00,Wunderground v.1.15,2013-03-22 11:40:00,
2013-03-22 07:50:00,33.3,17.1,30.09,ENE,60,0.0,0.0,51,0.00,,,0.00,Wunderground v.1.15,2013-03-22 11:50:00,
2013-03-22 08:00:00,33.3,17.5,30.08,ENE,57,0.0,2.0,52,0.00,,,0.00,Wunderground v.1.15,2013-03-22 12:00:00,
2013-03-22 08:10:00,33.2,17.9,30.08,ENE,57,0.0,0.0,53,0.00,,,0.00,Wunderground v.1.15,2013-03-22 12:10:00,
2013-03-22 08:20:00,33.3,17.5,30.09,ENE,57,0.0,1.0,52,0.00,,,0.00,Wunderground v.1.15,2013-03-22 12:20:00,
2013-03-22 08:30:00,33.3,18.0,30.09,ENE,57,0.0,0.0,53,0.00,,,0.00,Wunderground v.1.15,2013-03-22 12:30:00,
2013-03-22 08:40:00,33.4,17.6,30.09,ENE,57,0.0,0.0,52,0.00,,,0.00,Wunderground v.1.15,2013-03-22 12:40:00,
2013-03-22 08:50:00,33.5,17.7,30.10,ENE,57,0.0,0.0,52,0.00,,,0.00,Wunderground v.1.15,2013-03-22 12:50:00,
2013-03-22 09:00:00,33.6,17.8,30.10,ENE,57,0.0,0.0,52,0.00,,,0.00,Wunderground v.1.15,2013-03-22 13:00:00,
2013-03-22 09:10:00,33.8,18.5,30.10,ENE,57,0.0,0.0,53,0.00,,,0.00,Wunderground v.1.15,2013-03-22 13:10:00,
2013-03-22 09:20:00,33.9,18.6,30.10,ENE,57,0.0,0.0,53,0.00,,,0.00,Wunderground v.1.15,2013-03-22 13:20:00,
2013-03-22 09:30:00,34.1,18.7,30.10,NE,49,0.0,0.0,53,0.00,,,0.00,Wunderground v.1.15,2013-03-22 13:30:00,
2013-03-22 09:40:00,34.1,18.3,30.10,NE,49,0.0,0.0,52,0.00,,,0.00,Wunderground v.1.15,2013-03-22 13:40:00,
2013-03-22 09:50:00,34.3,18.9,30.11,NE,49,0.0,0.0,53,0.00,,,0.00,Wunderground v.1.15,2013-03-22 13:50:00,
2013-03-22 10:00:00,34.5,19.5,30.11,NE,49,0.0,0.0,54,0.00,,,0.00,Wunderground v.1.15,2013-03-22 14:00:00,
2013-03-22 10:10:00,34.6,19.2,30.10,NE,49,0.0,0.0,53,0.00,,,0.00,Wunderground v.1.15,2013-03-22 14:10:00,
2013-03-22 10:20:00,34.9,19.5,30.10,NE,44,1.0,2.0,53,0.00,,,0.00,Wunderground v.1.15,2013-03-22 14:20:00,
2013-03-22 10:30:00,34.9,19.5,30.10,NE,38,1.0,1.0,53,0.00,,,0.00,Wunderground v.1.15,2013-03-22 14:30:00,
2013-03-22 10:40:00,35.0,19.6,30.10,NE,42,0.0,1.0,53,0.00,,,0.00,Wunderground v.1.15,2013-03-22 14:40:00,
2013-03-22 10:50:00,35.2,20.6,30.10,NE,42,1.0,1.0,55,0.00,,,0.00,Wunderground v.1.15,2013-03-22 14:50:00,
2013-03-22 11:00:00,35.5,20.5,30.10,NE,36,1.0,1.0,54,0.00,,,0.00,Wunderground v.1.15,2013-03-22 15:00:00,
2013-03-22 11:10:00,35.7,20.2,30.10,NE,46,1.0,1.0,53,0.00,,,0.00,Wunderground v.1.15,2013-03-22 15:10:00,
2013-03-22 11:20:00,36.0,20.5,30.09,NE,37,1.0,1.0,53,0.00,,,0.00,Wunderground v.1.15,2013-03-22 15:20:00,
2013-03-22 11:30:00,36.4,20.9,30.10,NE,42,0.0,0.0,53,0.00,,,0.00,Wunderground v.1.15,2013-03-22 15:30:00,
2013-03-22 11:40:00,36.8,20.3,30.09,NE,42,0.0,0.0,51,0.00,,,0.00,Wunderground v.1.15,2013-03-22 15:40:00,
2013-03-22 11:50:00,37.1,20.2,30.09,ENE,61,0.0,0.0,50,0.00,,,0.00,Wunderground v.1.15,2013-03-22 15:50:00,
2013-03-22 12:00:00,37.7,20.7,30.09,ENE,61,1.0,1.0,50,0.00,,,0.00,Wunderground v.1.15,2013-03-22 16:00:00,
2013-03-22 12:10:00,38.0,20.5,30.09,ENE,59,1.0,1.0,49,0.00,,,0.00,Wunderground v.1.15,2013-03-22 16:10:00,
2013-03-22 12:20:00,38.4,20.4,30.10,ENE,57,0.0,0.0,48,0.00,,,0.00,Wunderground v.1.15,2013-03-22 16:20:00,
2013-03-22 12:30:00,38.7,20.7,30.11,ENE,63,0.0,0.0,48,0.00,,,0.00,Wunderground v.1.15,2013-03-22 16:30:00,
2013-03-22 12:40:00,38.9,20.9,30.10,ENE,63,0.0,0.0,48,0.00,,,0.00,Wunderground v.1.15,2013-03-22 16:40:00,
2013-03-22 12:50:00,39.1,21.0,30.11,SSW,196,0.0,0.0,48,0.00,,,0.00,Wunderground v.1.15,2013-03-22 16:50:00,
2013-03-22 13:00:00,39.4,21.3,30.10,WSW,248,0.0,0.0,48,0.00,,,0.00,Wunderground v.1.15,2013-03-22 17:00:00,
2013-03-22 13:10:00,39.7,22.1,30.10,ENE,65,0.0,0.0,49,0.00,,,0.00,Wunderground v.1.15,2013-03-22 17:10:00,
2013-03-22 13:20:00,40.6,23.4,30.09,SW,232,1.0,3.0,50,0.00,,,0.00,Wunderground v.1.15,2013-03-22 17:20:00,
2013-03-22 13:30:00,41.1,22.9,30.09,East,88,1.0,1.0,48,0.00,,,0.00,Wunderground v.1.15,2013-03-22 17:30:00,
2013-03-22 13:40:00,41.5,23.2,30.09,East,88,0.0,0.0,48,0.00,,,0.00,Wunderground v.1.15,2013-03-22 17:40:00,
2013-03-22 13:50:00,41.7,23.9,30.09,SW,223,1.0,1.0,49,0.00,,,0.00,Wunderground v.1.15,2013-03-22 17:50:00,
2013-03-22 14:00:00,42.1,24.8,30.08,SW,236,0.0,1.0,50,0.00,,,0.00,Wunderground v.1.15,2013-03-22 18:00:00,
2013-03-22 14:10:00,42.2,24.9,30.08,WSW,238,1.0,2.0,50,0.00,,,0.00,Wunderground v.1.15,2013-03-22 18:10:00,
2013-03-22 14:20:00,42.3,25.9,30.08,WSW,238,0.0,0.0,52,0.00,,,0.00,Wunderground v.1.15,2013-03-22 18:20:00,
2013-03-22 14:30:00,42.5,25.1,30.08,South,175,1.0,1.0,50,0.00,,,0.00,Wunderground v.1.15,2013-03-22 18:30:00,
2013-03-22 14:40:00,42.5,25.1,30.08,SSW,198,0.0,0.0,50,0.00,,,0.00,Wunderground v.1.15,2013-03-22 18:40:00,
2013-03-22 14:50:00,42.6,24.3,30.07,WSW,258,1.0,1.0,48,0.00,,,0.00,Wunderground v.1.15,2013-03-22 18:50:00,
2013-03-22 15:00:00,42.8,24.9,30.07,West,267,1.0,1.0,49,0.00,,,0.00,Wunderground v.1.15,2013-03-22 19:00:00,
2013-03-22 15:10:00,42.7,23.8,30.06,West,273,0.0,0.0,47,0.00,,,0.00,Wunderground v.1.15,2013-03-22 19:10:00,
2013-03-22 15:20:00,42.9,24.5,30.06,West,265,0.0,0.0,48,0.00,,,0.00,Wunderground v.1.15,2013-03-22 19:20:00,
2013-03-22 15:30:00,43.4,25.5,30.05,West,265,0.0,1.0,49,0.00,,,0.00,Wunderground v.1.15,2013-03-22 19:30:00,
2013-03-22 15:40:00,43.7,24.8,30.04,SW,227,0.0,1.0,47,0.00,,,0.00,Wunderground v.1.15,2013-03-22 19:40:00,
2013-03-22 15:50:00,43.9,25.5,30.04,NNW,329,0.0,1.0,48,0.00,,,0.00,Wunderground v.1.15,2013-03-22 19:50:00,
2013-03-22 16:00:00,43.9,24.9,30.04,North,5,0.0,2.0,47,0.00,,,0.00,Wunderground v.1.15,2013-03-22 20:00:00,
2013-03-22 16:10:00,44.1,25.1,30.04,North,5,0.0,0.0,47,0.00,,,0.00,Wunderground v.1.15,2013-03-22 20:10:00,
2013-03-22 16:20:00,44.2,25.2,30.04,North,5,1.0,1.0,47,0.00,,,0.00,Wunderground v.1.15,2013-03-22 20:20:00,
2013-03-22 16:30:00,44.3,25.3,30.04,North,5,0.0,1.0,47,0.00,,,0.00,Wunderground v.1.15,2013-03-22 20:30:00,
2013-03-22 16:40:00,44.4,24.9,30.04,North,5,0.0,0.0,46,0.00,,,0.00,Wunderground v.1.15,2013-03-22 20:40:00,
2013-03-22 16:50:00,44.4,25.4,30.04,North,5,0.0,0.0,47,0.00,,,0.00,Wunderground v.1.15,2013-03-22 20:50:00,
2013-03-22 17:00:00,44.4,25.4,30.03,North,5,0.0,0.0,47,0.00,,,0.00,Wunderground v.1.15,2013-03-22 21:00:00,
2013-03-22 17:10:00,44.3,25.8,30.04,North,5,0.0,0.0,48,0.00,,,0.00,Wunderground v.1.15,2013-03-22 21:10:00,
2013-03-22 17:20:00,44.5,26.5,30.03,North,5,0.0,0.0,49,0.00,,,0.00,Wunderground v.1.15,2013-03-22 21:20:00,
2013-03-22 17:30:00,44.6,26.6,30.04,North,5,0.0,0.0,49,0.00,,,0.00,Wunderground v.1.15,2013-03-22 21:30:00,
2013-03-22 17:40:00,44.6,26.6,30.03,North,5,0.0,0.0,49,0.00,,,0.00,Wunderground v.1.15,2013-03-22 21:40:00,
2013-03-22 17:50:00,44.7,26.2,30.03,North,5,0.0,0.0,48,0.00,,,0.00,Wunderground v.1.15,2013-03-22 21:50:00,
2013-03-22 18:00:00,44.6,26.6,30.03,North,5,0.0,0.0,49,0.00,,,0.00,Wunderground v.1.15,2013-03-22 22:00:00,
2013-03-22 18:10:00,44.6,26.6,30.03,North,5,0.0,0.0,49,0.00,,,0.00,Wunderground v.1.15,2013-03-22 22:10:00,
2013-03-22 18:20:00,44.7,26.7,30.03,North,5,0.0,0.0,49,0.00,,,0.00,Wunderground v.1.15,2013-03-22 22:20:00,
2013-03-22 18:30:00,44.7,27.2,30.03,North,5,0.0,0.0,50,0.00,,,0.00,Wunderground v.1.15,2013-03-22 22:30:00,
2013-03-22 18:40:00,44.7,26.7,30.03,North,5,0.0,0.0,49,0.00,,,0.00,Wunderground v.1.15,2013-03-22 22:40:00,
2013-03-22 18:50:00,44.6,27.1,30.03,North,5,0.0,0.0,50,0.00,,,0.00,Wunderground v.1.15,2013-03-22 22:50:00,
2013-03-22 19:00:00,44.6,27.1,30.03,North,5,0.0,0.0,50,0.00,,,0.00,Wunderground v.1.15,2013-03-22 23:00:00,
2013-03-22 19:10:00,44.7,27.2,30.04,North,5,0.0,0.0,50,0.00,,,0.00,Wunderground v.1.15,2013-03-22 23:10:00,
2013-03-22 19:20:00,44.7,27.7,30.04,North,5,0.0,0.0,51,0.00,,,0.00,Wunderground v.1.15,2013-03-22 23:20:00,
2013-03-22 19:30:00,44.7,28.1,30.04,North,5,0.0,0.0,52,0.00,,,0.00,Wunderground v.1.15,2013-03-22 23:30:00,
2013-03-22 19:40:00,44.6,28.0,30.04,North,5,0.0,0.0,52,0.00,,,0.00,Wunderground v.1.15,2013-03-22 23:40:00,
2013-03-22 19:50:00,44.5,28.0,30.04,North,5,0.0,0.0,52,0.00,,,0.00,Wunderground v.1.15,2013-03-22 23:50:00,
2013-03-22 20:00:00,44.2,28.6,30.03,North,5,0.0,0.0,54,0.00,,,0.00,Wunderground v.1.15,2013-03-23 00:00:00,
2013-03-22 20:10:00,44.1,27.6,30.04,North,5,0.0,0.0,52,0.00,,,0.00,Wunderground v.1.15,2013-03-23 00:10:00,
2013-03-22 20:20:00,44.0,28.0,30.05,North,5,0.0,0.0,53,0.00,,,0.00,Wunderground v.1.15,2013-03-23 00:20:00,
2013-03-22 20:30:00,43.9,28.3,30.06,North,5,0.0,0.0,54,0.00,,,0.00,Wunderground v.1.15,2013-03-23 00:30:00,
2013-03-22 20:40:00,43.9,28.3,30.05,North,5,0.0,0.0,54,0.00,,,0.00,Wunderground v.1.15,2013-03-23 00:40:00,
2013-03-22 20:50:00,43.8,29.1,30.05,North,5,0.0,0.0,56,0.00,,,0.00,Wunderground v.1.15,2013-03-23 00:50:00,
2013-03-22 21:00:00,43.7,29.0,30.06,North,5,0.0,0.0,56,0.00,,,0.00,Wunderground v.1.15,2013-03-23 01:00:00,
2013-03-22 21:10:00,43.7,29.5,30.07,North,5,0.0,0.0,57,0.00,,,0.00,Wunderground v.1.15,2013-03-23 01:10:00,
2013-03-22 21:20:00,43.6,29.4,30.06,North,5,0.0,0.0,57,0.00,,,0.00,Wunderground v.1.15,2013-03-23 01:20:00,
2013-03-22 21:30:00,43.5,29.7,30.06,North,5,0.0,0.0,58,0.00,,,0.00,Wunderground v.1.15,2013-03-23 01:30:00,
2013-03-22 21:40:00,43.4,29.2,30.06,North,5,0.0,0.0,57,0.00,,,0.00,Wunderground v.1.15,2013-03-23 01:40:00,
2013-03-22 21:50:00,43.4,30.0,30.05,North,5,0.0,0.0,59,0.00,,,0.00,Wunderground v.1.15,2013-03-23 01:50:00,
2013-03-22 22:00:00,43.3,29.9,30.06,North,5,0.0,0.0,59,0.00,,,0.00,Wunderground v.1.15,2013-03-23 02:00:00,
2013-03-22 22:10:00,43.3,30.7,30.06,North,5,0.0,0.0,61,0.00,,,0.00,Wunderground v.1.15,2013-03-23 02:10:00,
2013-03-22 22:20:00,43.2,30.6,30.06,North,5,0.0,0.0,61,0.00,,,0.00,Wunderground v.1.15,2013-03-23 02:20:00,
2013-03-22 22:30:00,43.2,31.1,30.06,North,5,0.0,0.0,62,0.00,,,0.00,Wunderground v.1.15,2013-03-23 02:30:00,
2013-03-22 22:40:00,43.1,30.6,30.06,North,5,0.0,0.0,61,0.00,,,0.00,Wunderground v.1.15,2013-03-23 02:40:00,
2013-03-22 22:50:00,43.1,31.4,30.06,North,5,0.0,0.0,63,0.00,,,0.00,Wunderground v.1.15,2013-03-23 02:50:00,
2013-03-22 23:00:00,43.1,31.7,30.06,North,5,0.0,0.0,64,0.00,,,0.00,Wunderground v.1.15,2013-03-23 03:00:00,
2013-03-22 23:10:00,43.0,31.3,30.07,North,5,0.0,0.0,63,0.00,,,0.00,Wunderground v.1.15,2013-03-23 03:10:00,
2013-03-22 23:20:00,43.0,30.9,30.07,North,5,0.0,0.0,62,0.00,,,0.00,Wunderground v.1.15,2013-03-23 03:20:00,
2013-03-22 23:30:00,43.0,31.6,30.07,North,5,0.0,0.0,64,0.00,,,0.00,Wunderground v.1.15,2013-03-23 03:30:00,
2013-03-22 23:40:00,42.9,32.3,30.07,North,5,0.0,0.0,66,0.00,,,0.00,Wunderground v.1.15,2013-03-23 03:40:00,
2013-03-22 23:50:00,42.7,33.2,30.07,North,9,0.0,0.0,69,0.00,,,0.00,Wunderground v.1.15,2013-03-23 03:50:00,